Time;durP1;ratioP1;P1;durP2;ratioP2;P2;SDS_P1;SDS_P2;PMS_P1;PMS_P2;Temp;Humidity;BMP_temperature;BMP_pressure;BME280_temperature;BME280_humidity;BME280_pressure;Samples;Min_cycle;Max_cycle;Signal;HPM_P1;HPM_P2
2024/03/02 00:00:50;;;;;;;24.63;22.70;;;;;;;;;;4976740;28;20223;-81
2024/03/02 00:03:17;;;;;;;25.23;23.23;;;;;;;;;;4977556;28;20455;-81
2024/03/02 00:05:46;;;;;;;25.50;23.30;;;;;;;;;;4976793;28;20289;-83
2024/03/02 00:08:14;;;;;;;25.05;22.95;;;;;;;;;;4976959;28;20216;-81
2024/03/02 00:10:42;;;;;;;26.20;24.10;;;;;;;;;;4976708;28;20234;-80
2024/03/02 00:13:09;;;;;;;26.23;24.10;;;;;;;;;;4977124;28;20237;-83
2024/03/02 00:15:43;;;;;;;25.25;23.30;;;;;;;;;;4976901;28;20504;-81
2024/03/02 00:18:12;;;;;;;26.58;24.15;;;;;;;;;;4977799;28;20215;-82
2024/03/02 00:20:40;;;;;;;22.13;20.50;;;;;;;;;;4994895;28;20257;-83
2024/03/02 00:23:07;;;;;;;25.00;23.05;;;;;;;;;;4997833;28;20457;-83
2024/03/02 00:25:41;;;;;;;25.67;23.65;;;;;;;;;;5000017;28;20206;-81
2024/03/02 00:28:15;;;;;;;27.90;25.53;;;;;;;;;;4980561;28;20209;-81
2024/03/02 00:30:51;;;;;;;25.45;23.40;;;;;;;;;;4979810;28;20478;-82
2024/03/02 00:33:19;;;;;;;25.42;23.33;;;;;;;;;;4980689;28;20222;-81
2024/03/02 00:35:46;;;;;;;24.92;22.75;;;;;;;;;;4985741;28;20218;-83
2024/03/02 00:38:15;;;;;;;26.67;24.50;;;;;;;;;;4996110;28;20219;-83
2024/03/02 00:40:42;;;;;;;25.27;23.03;;;;;;;;;;4994166;28;20241;-81
2024/03/02 00:43:12;;;;;;;25.45;23.45;;;;;;;;;;4987755;28;20477;-81
2024/03/02 00:45:42;;;;;;;25.15;23.15;;;;;;;;;;4995479;28;20207;-81
2024/03/02 00:48:09;;;;;;;24.58;22.65;;;;;;;;;;5000733;28;20631;-81
2024/03/02 00:50:36;;;;;;;24.02;22.13;;;;;;;;;;4999526;28;20237;-81
2024/03/02 00:53:03;;;;;;;23.90;22.10;;;;;;;;;;4999978;28;20235;-82
2024/03/02 00:55:30;;;;;;;25.02;22.92;;;;;;;;;;4999602;28;20823;-81
2024/03/02 00:57:57;;;;;;;24.10;22.07;;;;;;;;;;5000011;28;20206;-81
2024/03/02 01:00:24;;;;;;;23.50;21.50;;;;;;;;;;4999352;28;20492;-81
2024/03/02 01:02:53;;;;;;;24.67;22.77;;;;;;;;;;4998849;28;20233;-80
2024/03/02 01:05:20;;;;;;;24.65;22.65;;;;;;;;;;4998908;28;20257;-81
2024/03/02 01:07:47;;;;;;;25.10;23.00;;;;;;;;;;4999703;28;20206;-83
2024/03/02 01:10:14;;;;;;;23.17;21.52;;;;;;;;;;4999197;28;20934;-82
2024/03/02 01:12:41;;;;;;;23.50;21.80;;;;;;;;;;4998589;28;20990;-81
2024/03/02 01:15:08;;;;;;;25.20;23.30;;;;;;;;;;4998995;28;20528;-83
2024/03/02 01:17:35;;;;;;;25.05;23.25;;;;;;;;;;4966693;28;20463;-82
2024/03/02 01:20:04;;;;;;;24.07;22.27;;;;;;;;;;4968177;28;20281;-82
2024/03/02 01:22:31;;;;;;;24.08;22.23;;;;;;;;;;4979222;28;20529;-82
2024/03/02 01:24:58;;;;;;;24.80;22.90;;;;;;;;;;4979793;28;20227;-82
2024/03/02 01:27:25;;;;;;;25.65;23.65;;;;;;;;;;4994795;28;20198;-82
2024/03/02 01:29:52;;;;;;;23.45;21.65;;;;;;;;;;4998983;28;20678;-84
2024/03/02 01:32:19;;;;;;;22.80;20.97;;;;;;;;;;4997903;28;20293;-81
2024/03/02 01:34:48;;;;;;;24.52;22.65;;;;;;;;;;4998813;28;20535;-81
2024/03/02 01:37:16;;;;;;;22.00;20.50;;;;;;;;;;4999168;28;20245;-82
2024/03/02 01:39:42;;;;;;;24.45;22.30;;;;;;;;;;4999251;28;20206;-83
2024/03/02 01:42:10;;;;;;;24.17;22.27;;;;;;;;;;4997750;28;20249;-81
2024/03/02 01:44:37;;;;;;;25.23;23.35;;;;;;;;;;4998795;28;20238;-82
2024/03/02 01:47:04;;;;;;;24.27;22.27;;;;;;;;;;4987744;28;20265;-82
2024/03/02 01:49:32;;;;;;;25.93;23.73;;;;;;;;;;4992146;28;20789;-82
2024/03/02 01:51:59;;;;;;;24.58;22.73;;;;;;;;;;4998691;28;20449;-82
2024/03/02 01:54:30;;;;;;;23.92;22.23;;;;;;;;;;4980391;28;20231;-81
2024/03/02 01:56:57;;;;;;;25.90;23.60;;;;;;;;;;4979322;28;20576;-82
2024/03/02 01:59:24;;;;;;;24.55;22.55;;;;;;;;;;4987816;28;20443;-82
2024/03/02 02:01:51;;;;;;;25.50;23.33;;;;;;;;;;4997659;28;20240;-81
2024/03/02 02:04:21;;;;;;;25.10;23.08;;;;;;;;;;4987468;28;20615;-82
2024/03/02 02:06:48;;;;;;;23.40;21.50;;;;;;;;;;4978577;28;20195;-83
2024/03/02 02:09:15;;;;;;;24.85;22.95;;;;;;;;;;4978556;28;20663;-81
2024/03/02 02:11:43;;;;;;;25.13;22.92;;;;;;;;;;4978408;28;20286;-81
2024/03/02 02:14:17;;;;;;;22.60;20.80;;;;;;;;;;4978588;28;20234;-82
2024/03/02 02:16:44;;;;;;;24.07;22.17;;;;;;;;;;4978367;28;20214;-82
2024/03/02 02:19:11;;;;;;;21.90;20.27;;;;;;;;;;4978152;28;20792;-81
2024/03/02 02:21:39;;;;;;;24.67;22.58;;;;;;;;;;4978510;28;20713;-83
2024/03/02 02:24:06;;;;;;;24.35;22.38;;;;;;;;;;4988099;28;20225;-81
2024/03/02 02:26:33;;;;;;;24.77;22.97;;;;;;;;;;4981983;28;20210;-80
2024/03/02 02:29:00;;;;;;;23.88;22.15;;;;;;;;;;4978616;28;20466;-82
2024/03/02 02:31:27;;;;;;;22.08;20.40;;;;;;;;;;4977639;28;20911;-83
2024/03/02 02:33:55;;;;;;;23.63;21.80;;;;;;;;;;4986687;28;20709;-81
2024/03/02 02:36:22;;;;;;;25.48;23.40;;;;;;;;;;4980133;28;20223;-83
2024/03/02 02:38:50;;;;;;;23.90;22.10;;;;;;;;;;4978205;28;20211;-82
2024/03/02 02:41:17;;;;;;;25.10;23.20;;;;;;;;;;4977467;28;20234;-81
2024/03/02 02:43:44;;;;;;;24.13;22.40;;;;;;;;;;4977720;28;20227;-81
2024/03/02 02:46:11;;;;;;;22.77;21.07;;;;;;;;;;4977972;28;20600;-81
2024/03/02 02:48:38;;;;;;;23.98;22.13;;;;;;;;;;4978581;28;20458;-83
2024/03/02 02:51:05;;;;;;;25.80;23.67;;;;;;;;;;4990885;28;20260;-81
2024/03/02 02:53:32;;;;;;;23.67;22.03;;;;;;;;;;4991363;28;20239;-82
2024/03/02 02:56:01;;;;;;;22.93;21.33;;;;;;;;;;4977906;28;20465;-81
2024/03/02 02:58:28;;;;;;;26.23;24.05;;;;;;;;;;4977989;28;20549;-83
2024/03/02 03:00:56;;;;;;;25.30;23.23;;;;;;;;;;4977128;28;20285;-81
2024/03/02 03:03:23;;;;;;;25.73;23.83;;;;;;;;;;4977335;28;20222;-81
2024/03/02 03:05:50;;;;;;;25.60;23.60;;;;;;;;;;4977740;28;20466;-81
2024/03/02 03:08:17;;;;;;;25.00;23.10;;;;;;;;;;4977499;28;20209;-80
2024/03/02 03:10:45;;;;;;;25.75;23.55;;;;;;;;;;4979696;28;20509;-82
2024/03/02 03:13:13;;;;;;;25.13;23.02;;;;;;;;;;4977637;28;20234;-81
2024/03/02 03:15:40;;;;;;;25.50;23.45;;;;;;;;;;4977603;28;20199;-83
2024/03/02 03:18:08;;;;;;;27.70;25.40;;;;;;;;;;4977181;28;20214;-82
2024/03/02 03:20:35;;;;;;;26.48;24.25;;;;;;;;;;4977136;28;20218;-81
2024/03/02 03:23:03;;;;;;;24.20;22.10;;;;;;;;;;4979113;28;20261;-81
2024/03/02 03:25:30;;;;;;;27.92;25.55;;;;;;;;;;4996716;28;20903;-83
2024/03/02 03:27:57;;;;;;;25.57;23.50;;;;;;;;;;4996997;28;20206;-82
2024/03/02 03:30:26;;;;;;;23.92;21.92;;;;;;;;;;4996459;28;20469;-81
2024/03/02 03:32:53;;;;;;;27.60;25.50;;;;;;;;;;4996188;28;20210;-82
2024/03/02 03:35:20;;;;;;;27.10;24.90;;;;;;;;;;4996563;28;20637;-81
2024/03/02 03:37:47;;;;;;;27.80;25.37;;;;;;;;;;4978873;28;20487;-80
2024/03/02 03:40:14;;;;;;;28.03;25.50;;;;;;;;;;4977217;28;20997;-80
2024/03/02 03:42:41;;;;;;;25.30;23.20;;;;;;;;;;4976415;28;20568;-83
2024/03/02 03:45:08;;;;;;;22.30;20.73;;;;;;;;;;4976678;28;20234;-82
2024/03/02 03:47:37;;;;;;;27.95;25.20;;;;;;;;;;4977040;28;20476;-82
2024/03/02 03:50:06;;;;;;;27.00;24.90;;;;;;;;;;4977684;28;20219;-80
2024/03/02 03:52:34;;;;;;;27.40;25.13;;;;;;;;;;4976685;28;20450;-80
2024/03/02 03:55:01;;;;;;;26.50;24.35;;;;;;;;;;4976980;28;20265;-80
2024/03/02 03:57:27;;;;;;;30.33;27.48;;;;;;;;;;4977519;28;20265;-80
2024/03/02 03:59:54;;;;;;;28.08;25.67;;;;;;;;;;4981411;28;20218;-82
2024/03/02 04:02:21;;;;;;;27.17;24.80;;;;;;;;;;4979754;28;20223;-80
2024/03/02 04:04:50;;;;;;;25.50;23.33;;;;;;;;;;4980843;28;20281;-80
2024/03/02 04:07:18;;;;;;;26.27;24.00;;;;;;;;;;4980285;28;20407;-80
2024/03/02 04:09:45;;;;;;;28.27;25.58;;;;;;;;;;4980391;28;20481;-80
2024/03/02 04:12:12;;;;;;;27.40;25.23;;;;;;;;;;4980314;28;20266;-82
2024/03/02 04:14:42;;;;;;;26.30;24.05;;;;;;;;;;4980798;28;20482;-80
2024/03/02 04:17:10;;;;;;;28.90;26.40;;;;;;;;;;4980903;28;20207;-82
2024/03/02 04:19:37;;;;;;;28.50;25.83;;;;;;;;;;4980945;28;20636;-80
2024/03/02 04:22:05;;;;;;;28.90;26.35;;;;;;;;;;4980091;28;20570;-80
2024/03/02 04:24:32;;;;;;;27.95;25.50;;;;;;;;;;4980899;28;20262;-81
2024/03/02 04:26:59;;;;;;;27.80;25.40;;;;;;;;;;4980324;28;20221;-80
2024/03/02 04:29:26;;;;;;;27.60;25.20;;;;;;;;;;4980459;28;20750;-80
2024/03/02 04:31:53;;;;;;;29.73;27.17;;;;;;;;;;4979462;28;20525;-82
2024/03/02 04:34:20;;;;;;;27.88;25.50;;;;;;;;;;4980090;28;20557;-82
2024/03/02 04:36:47;;;;;;;29.73;26.73;;;;;;;;;;4980054;28;20215;-81
2024/03/02 04:39:15;;;;;;;29.35;26.88;;;;;;;;;;4979942;28;20242;-80
2024/03/02 04:41:42;;;;;;;29.70;26.95;;;;;;;;;;4978810;28;20710;-80
2024/03/02 04:44:10;;;;;;;30.43;27.70;;;;;;;;;;4979531;28;20250;-81
2024/03/02 04:46:37;;;;;;;28.77;25.88;;;;;;;;;;4979923;28;20458;-82
2024/03/02 04:49:04;;;;;;;28.10;25.50;;;;;;;;;;4979903;28;20614;-82
2024/03/02 04:51:31;;;;;;;29.77;27.17;;;;;;;;;;4979238;28;20203;-80
2024/03/02 04:53:58;;;;;;;26.70;24.30;;;;;;;;;;4979146;28;20699;-82
2024/03/02 04:56:44;;;;;;;27.55;24.85;;;;;;;;;;4979740;28;20672;-81
2024/03/02 04:59:11;;;;;;;28.88;26.38;;;;;;;;;;4980062;28;20209;-81
2024/03/02 05:01:38;;;;;;;29.42;26.75;;;;;;;;;;4979222;28;20230;-80
2024/03/02 05:04:05;;;;;;;27.95;25.40;;;;;;;;;;4978769;28;20234;-81
2024/03/02 05:06:32;;;;;;;31.20;27.90;;;;;;;;;;4979287;28;20224;-79
2024/03/02 05:08:59;;;;;;;29.20;26.50;;;;;;;;;;4979416;28;20579;-82
2024/03/02 05:11:59;;;;;;;30.40;27.70;;;;;;;;;;4979163;28;20655;-82
2024/03/02 05:14:26;;;;;;;30.92;28.13;;;;;;;;;;4979052;28;20234;-82
2024/03/02 05:16:53;;;;;;;28.43;25.67;;;;;;;;;;4979551;28;20207;-80
2024/03/02 05:19:20;;;;;;;31.83;29.10;;;;;;;;;;4979169;28;20438;-80
2024/03/02 05:21:47;;;;;;;29.70;27.10;;;;;;;;;;4978439;28;20311;-81
2024/03/02 05:24:14;;;;;;;27.73;25.03;;;;;;;;;;4979036;28;20449;-82
2024/03/02 05:26:42;;;;;;;32.03;29.03;;;;;;;;;;4979753;28;20461;-81
2024/03/02 05:29:10;;;;;;;29.17;26.40;;;;;;;;;;4979179;28;20458;-80
2024/03/02 05:31:37;;;;;;;28.42;25.75;;;;;;;;;;4978030;28;20442;-81
2024/03/02 05:34:05;;;;;;;30.53;27.30;;;;;;;;;;4988763;28;20285;-80
2024/03/02 05:36:32;;;;;;;25.27;22.77;;;;;;;;;;4998820;28;20454;-80
2024/03/02 05:38:59;;;;;;;26.83;24.42;;;;;;;;;;4998254;28;20945;-82
2024/03/02 05:41:26;;;;;;;26.70;24.27;;;;;;;;;;4997515;28;20226;-81
2024/03/02 05:43:54;;;;;;;29.17;26.48;;;;;;;;;;4998417;28;20258;-80
2024/03/02 05:46:22;;;;;;;28.55;25.95;;;;;;;;;;4998163;28;20206;-81
2024/03/02 05:48:49;;;;;;;26.73;24.17;;;;;;;;;;4997875;28;21048;-80
2024/03/02 05:51:16;;;;;;;28.87;26.23;;;;;;;;;;4998196;28;20210;-80
2024/03/02 05:53:42;;;;;;;30.45;27.25;;;;;;;;;;4997687;28;20469;-80
2024/03/02 05:56:09;;;;;;;29.27;26.47;;;;;;;;;;4997961;28;20222;-80
2024/03/02 05:58:49;;;;;;;29.83;26.83;;;;;;;;;;4998119;28;20453;-80
2024/03/02 06:01:18;;;;;;;32.73;29.50;;;;;;;;;;4997393;28;20233;-82
2024/03/02 06:03:45;;;;;;;28.95;26.55;;;;;;;;;;4997935;28;20484;-82
2024/03/02 06:06:12;;;;;;;30.33;27.58;;;;;;;;;;5002190;28;20202;-80
2024/03/02 06:08:39;;;;;;;29.27;26.33;;;;;;;;;;5012244;28;20210;-82
2024/03/02 06:11:06;;;;;;;31.48;28.58;;;;;;;;;;4994310;28;20497;-82
2024/03/02 06:13:33;;;;;;;30.83;27.80;;;;;;;;;;4997778;28;20272;-82
2024/03/02 06:16:00;;;;;;;29.23;26.48;;;;;;;;;;4991232;28;20466;-80
2024/03/02 06:18:28;;;;;;;31.67;28.83;;;;;;;;;;4978529;28;20253;-82
2024/03/02 06:20:56;;;;;;;28.63;25.98;;;;;;;;;;4977160;28;20234;-83
2024/03/02 06:23:23;;;;;;;28.15;25.65;;;;;;;;;;4977609;28;20234;-81
2024/03/02 06:25:50;;;;;;;31.63;28.63;;;;;;;;;;4976991;28;20214;-81
2024/03/02 06:28:17;;;;;;;31.43;28.20;;;;;;;;;;4977955;28;20431;-80
2024/03/02 06:30:44;;;;;;;29.30;26.65;;;;;;;;;;4977171;28;20446;-81
2024/03/02 06:33:12;;;;;;;32.27;29.10;;;;;;;;;;4994143;28;20245;-80
2024/03/02 06:35:40;;;;;;;30.67;27.75;;;;;;;;;;4997560;28;20535;-80
2024/03/02 06:38:08;;;;;;;30.52;27.48;;;;;;;;;;4997004;28;20217;-78
2024/03/02 06:40:37;;;;;;;31.10;28.10;;;;;;;;;;4992988;28;20210;-79
2024/03/02 06:43:04;;;;;;;30.52;27.42;;;;;;;;;;4992463;28;20304;-77
2024/03/02 06:45:33;;;;;;;30.20;27.40;;;;;;;;;;4988904;28;20218;-82
2024/03/02 06:48:00;;;;;;;31.83;28.55;;;;;;;;;;4989169;28;20284;-82
2024/03/02 06:50:28;;;;;;;31.30;28.15;;;;;;;;;;4993126;28;20656;-80
2024/03/02 06:52:57;;;;;;;30.80;27.73;;;;;;;;;;4973262;28;20723;-78
2024/03/02 06:55:24;;;;;;;30.52;27.60;;;;;;;;;;4974388;28;20284;-77
2024/03/02 06:57:51;;;;;;;30.27;27.30;;;;;;;;;;4973438;28;20305;-79
2024/03/02 07:00:20;;;;;;;32.05;29.02;;;;;;;;;;4973476;28;20447;-77
2024/03/02 07:02:47;;;;;;;30.70;27.80;;;;;;;;;;4972498;28;20235;-78
2024/03/02 07:05:14;;;;;;;34.17;29.15;;;;;;;;;;4973007;28;20741;-77
2024/03/02 07:07:41;;;;;;;32.03;29.07;;;;;;;;;;4972649;28;20234;-77
2024/03/02 07:10:10;;;;;;;30.13;27.25;;;;;;;;;;4972930;28;20454;-78
2024/03/02 07:12:37;;;;;;;31.05;28.10;;;;;;;;;;4971817;28;20206;-79
2024/03/02 07:15:36;;;;;;;32.70;29.67;;;;;;;;;;4974996;28;20230;-79
2024/03/02 07:18:04;;;;;;;30.27;27.37;;;;;;;;;;4972873;28;20258;-78
2024/03/02 07:20:31;;;;;;;31.05;27.83;;;;;;;;;;4959786;28;20501;-79
2024/03/02 07:22:57;;;;;;;31.50;28.43;;;;;;;;;;4973510;28;20231;-80
2024/03/02 07:25:26;;;;;;;32.28;29.02;;;;;;;;;;4973465;28;20997;-79
2024/03/02 07:27:53;;;;;;;30.92;27.75;;;;;;;;;;4974269;28;20195;-78
2024/03/02 07:30:20;;;;;;;29.10;26.27;;;;;;;;;;4974095;28;20576;-78
2024/03/02 07:32:47;;;;;;;31.88;28.75;;;;;;;;;;4976513;28;20501;-78
2024/03/02 07:35:14;;;;;;;31.63;28.67;;;;;;;;;;4972489;28;20235;-80
2024/03/02 07:37:42;;;;;;;29.90;27.10;;;;;;;;;;4968906;28;20851;-79
2024/03/02 07:40:11;;;;;;;29.95;26.73;;;;;;;;;;4974706;28;20454;-78
2024/03/02 07:42:39;;;;;;;31.73;28.70;;;;;;;;;;4991648;28;20229;-84
2024/03/02 07:45:09;;;;;;;30.63;27.70;;;;;;;;;;4962129;28;20463;-77
2024/03/02 07:47:36;;;;;;;30.37;27.43;;;;;;;;;;4988841;28;20222;-76
2024/03/02 07:50:06;;;;;;;33.03;29.83;;;;;;;;;;4980275;28;20938;-78
2024/03/02 07:52:33;;;;;;;30.93;28.00;;;;;;;;;;4974972;28;20465;-78
2024/03/02 07:55:00;;;;;;;35.70;29.98;;;;;;;;;;4984103;28;20503;-78
2024/03/02 07:57:27;;;;;;;33.83;30.27;;;;;;;;;;4979738;28;20214;-78
2024/03/02 07:59:56;;;;;;;33.73;28.63;;;;;;;;;;4989006;28;20501;-77
2024/03/02 08:02:23;;;;;;;30.60;27.90;;;;;;;;;;4978775;28;20489;-77
2024/03/02 08:04:50;;;;;;;31.47;28.50;;;;;;;;;;4974914;28;20482;-77
2024/03/02 08:07:17;;;;;;;30.20;27.50;;;;;;;;;;4975198;28;20440;-77
2024/03/02 08:09:44;;;;;;;31.03;28.30;;;;;;;;;;4977280;28;20458;-77
2024/03/02 08:12:11;;;;;;;29.17;26.50;;;;;;;;;;4974413;28;21013;-77
2024/03/02 08:14:38;;;;;;;32.77;29.83;;;;;;;;;;4974182;28;21104;-77
2024/03/02 08:17:09;;;;;;;28.53;25.83;;;;;;;;;;4978840;28;21166;-78
2024/03/02 08:19:36;;;;;;;30.60;27.77;;;;;;;;;;4975452;28;20453;-77
2024/03/02 08:22:03;;;;;;;26.90;24.43;;;;;;;;;;4974848;28;20446;-77
2024/03/02 08:24:30;;;;;;;28.33;25.87;;;;;;;;;;4975038;28;20489;-77
2024/03/02 08:26:57;;;;;;;29.30;26.60;;;;;;;;;;4978225;28;20461;-79
2024/03/02 08:29:25;;;;;;;29.57;27.03;;;;;;;;;;4994070;28;20503;-78
2024/03/02 08:31:52;;;;;;;30.67;27.87;;;;;;;;;;4993384;28;21229;-77
2024/03/02 08:34:23;;;;;;;30.20;27.63;;;;;;;;;;4993649;28;20508;-77
2024/03/02 08:36:50;;;;;;;27.90;25.50;;;;;;;;;;4993903;28;20441;-77
2024/03/02 08:39:17;;;;;;;29.20;26.43;;;;;;;;;;4994209;28;20467;-78
2024/03/02 08:41:44;;;;;;;29.87;27.30;;;;;;;;;;4993052;28;20447;-77
2024/03/02 08:44:11;;;;;;;27.43;25.13;;;;;;;;;;4992983;28;20495;-78
2024/03/02 08:46:38;;;;;;;26.47;24.23;;;;;;;;;;4994145;28;20504;-76
2024/03/02 08:49:05;;;;;;;25.73;23.77;;;;;;;;;;4993845;28;20916;-77
2024/03/02 08:51:34;;;;;;;26.10;24.10;;;;;;;;;;4987285;28;20437;-78
2024/03/02 08:54:01;;;;;;;30.30;27.27;;;;;;;;;;4974283;28;20540;-77
2024/03/02 08:56:28;;;;;;;27.77;25.50;;;;;;;;;;4974365;28;20529;-77
2024/03/02 08:58:55;;;;;;;25.93;23.90;;;;;;;;;;4974439;28;20481;-77
2024/03/02 09:01:22;;;;;;;26.90;24.60;;;;;;;;;;4973670;28;20458;-77
2024/03/02 09:03:49;;;;;;;25.57;23.47;;;;;;;;;;4973340;28;20494;-77
2024/03/02 09:06:17;;;;;;;25.27;23.40;;;;;;;;;;4973994;28;20461;-77
2024/03/02 09:08:45;;;;;;;23.33;21.53;;;;;;;;;;4985454;28;20469;-77
2024/03/02 09:11:13;;;;;;;24.90;22.90;;;;;;;;;;4989341;28;20496;-78
2024/03/02 09:13:42;;;;;;;23.27;21.67;;;;;;;;;;4972429;28;20466;-78
2024/03/02 09:16:13;;;;;;;22.13;20.50;;;;;;;;;;4975034;28;20453;-77
2024/03/02 09:19:01;;;;;;;22.80;21.10;;;;;;;;;;4973953;28;20489;-77
2024/03/02 09:21:31;;;;;;;22.20;20.60;;;;;;;;;;4976166;28;20803;-77
2024/03/02 09:27:08;;;;;;;21.33;19.70;;;;;;;;;;4972787;28;20416;-78
2024/03/02 09:29:36;;;;;;;21.70;20.17;;;;;;;;;;4993964;28;21118;-78
2024/03/02 09:32:03;;;;;;;21.53;20.10;;;;;;;;;;4955048;28;20463;-77
2024/03/02 09:34:33;;;;;;;21.77;20.27;;;;;;;;;;4954841;28;20578;-80
2024/03/02 09:37:04;;;;;;;22.40;20.90;;;;;;;;;;4969080;28;20517;-80
2024/03/02 09:39:34;;;;;;;22.23;20.67;;;;;;;;;;4977273;28;20465;-77
2024/03/02 09:42:13;;;;;;;22.87;21.30;;;;;;;;;;4967689;28;20478;-77
2024/03/02 09:44:50;;;;;;;23.90;22.20;;;;;;;;;;4965012;28;20580;-76
2024/03/02 09:47:20;;;;;;;23.90;22.20;;;;;;;;;;4964988;28;20930;-78
2024/03/02 09:49:50;;;;;;;23.10;21.30;;;;;;;;;;4973495;28;20446;-77
2024/03/02 09:52:21;;;;;;;24.47;22.77;;;;;;;;;;4973043;28;20456;-78
2024/03/02 09:54:53;;;;;;;23.60;21.83;;;;;;;;;;4973422;28;20982;-78
2024/03/02 09:57:20;;;;;;;25.23;23.27;;;;;;;;;;4973444;28;21117;-78
2024/03/02 09:59:49;;;;;;;24.40;22.50;;;;;;;;;;4987907;28;20531;-78
2024/03/02 10:02:18;;;;;;;22.00;20.47;;;;;;;;;;4990557;28;20942;-79
2024/03/02 10:04:46;;;;;;;23.90;22.03;;;;;;;;;;4992436;28;20497;-77
2024/03/02 10:07:21;;;;;;;24.93;22.87;;;;;;;;;;4994088;28;20445;-76
2024/03/02 10:12:32;;;;;;;22.97;21.33;;;;;;;;;;4972825;28;20545;-76
2024/03/02 10:15:09;;;;;;;24.17;22.30;;;;;;;;;;4973010;28;20444;-77
2024/03/02 10:17:37;;;;;;;23.17;21.50;;;;;;;;;;4972723;28;20446;-77
2024/03/02 10:20:21;;;;;;;21.80;20.33;;;;;;;;;;4956226;28;20534;-76
2024/03/02 10:22:48;;;;;;;23.00;21.40;;;;;;;;;;4952870;29;20455;-76
2024/03/02 10:25:29;;;;;;;23.57;21.87;;;;;;;;;;4952964;29;20451;-77
2024/03/02 10:27:58;;;;;;;24.33;22.63;;;;;;;;;;4954311;28;20478;-77
2024/03/02 10:30:27;;;;;;;23.10;21.60;;;;;;;;;;4972176;28;20482;-77
2024/03/02 10:32:55;;;;;;;23.27;21.70;;;;;;;;;;4971243;28;20939;-78
2024/03/02 10:35:23;;;;;;;23.13;21.57;;;;;;;;;;4965545;28;20463;-78
2024/03/02 10:37:50;;;;;;;22.90;21.40;;;;;;;;;;4967158;28;20921;-78
2024/03/02 10:40:17;;;;;;;24.33;22.70;;;;;;;;;;4972928;28;20450;-77
2024/03/02 10:42:45;;;;;;;24.00;22.20;;;;;;;;;;4971709;28;21013;-78
2024/03/02 10:45:13;;;;;;;22.97;21.47;;;;;;;;;;4971853;28;20478;-77
2024/03/02 10:47:43;;;;;;;23.03;21.53;;;;;;;;;;4971428;28;20490;-77
2024/03/02 10:50:10;;;;;;;23.83;22.13;;;;;;;;;;4975307;28;20455;-76
2024/03/02 10:52:38;;;;;;;22.93;21.37;;;;;;;;;;4984838;28;20453;-77
2024/03/02 10:55:06;;;;;;;22.57;21.07;;;;;;;;;;4984104;28;20541;-77
2024/03/02 10:57:39;;;;;;;22.43;20.93;;;;;;;;;;4970683;28;20489;-78
2024/03/02 11:00:07;;;;;;;22.70;21.00;;;;;;;;;;4952805;29;20447;-78
2024/03/02 11:02:35;;;;;;;22.73;21.23;;;;;;;;;;4952269;28;20459;-77
2024/03/02 11:05:07;;;;;;;21.80;20.40;;;;;;;;;;4978560;28;20476;-78
2024/03/02 11:07:34;;;;;;;23.00;21.40;;;;;;;;;;4990775;28;20411;-77
2024/03/02 11:10:08;;;;;;;21.80;20.30;;;;;;;;;;4991062;28;20878;-76
2024/03/02 11:12:39;;;;;;;23.10;21.50;;;;;;;;;;4973019;28;20556;-76
2024/03/02 11:15:11;;;;;;;22.43;20.63;;;;;;;;;;4978056;28;20930;-77
2024/03/02 11:17:41;;;;;;;20.90;19.47;;;;;;;;;;4972527;28;20464;-77
2024/03/02 11:20:42;;;;;;;21.00;19.77;;;;;;;;;;4968707;28;20471;-78
2024/03/02 11:23:10;;;;;;;21.57;20.17;;;;;;;;;;4970294;28;20515;-81
2024/03/02 11:25:39;;;;;;;21.63;20.13;;;;;;;;;;4975553;28;20466;-79
2024/03/02 11:28:09;;;;;;;22.13;20.73;;;;;;;;;;4959996;28;20473;-79
2024/03/02 11:31:23;;;;;;;22.07;20.47;;;;;;;;;;4978841;28;22423;-83
2024/03/02 11:34:05;;;;;;;21.90;20.60;;;;;;;;;;4956658;28;20481;-88
2024/03/02 11:36:47;;;;;;;21.20;20.00;;;;;;;;;;4956370;29;20502;-80
2024/03/02 11:39:19;;;;;;;21.97;20.60;;;;;;;;;;4956420;28;20542;-79
2024/03/02 11:41:47;;;;;;;23.40;21.90;;;;;;;;;;4954973;29;20463;-78
2024/03/02 11:44:28;;;;;;;21.67;20.27;;;;;;;;;;4955219;28;20495;-78
2024/03/02 11:46:59;;;;;;;22.03;20.53;;;;;;;;;;4955623;29;20447;-78
2024/03/02 11:49:44;;;;;;;23.10;21.60;;;;;;;;;;4956192;29;20491;-79
2024/03/02 11:52:33;;;;;;;22.43;21.03;;;;;;;;;;4956178;29;20435;-81
2024/03/02 11:55:10;;;;;;;24.00;22.30;;;;;;;;;;4957305;28;20505;-79
2024/03/02 11:57:40;;;;;;;22.93;21.50;;;;;;;;;;4957194;29;20820;-78
2024/03/02 12:00:21;;;;;;;22.77;21.37;;;;;;;;;;4957462;29;20442;-78
2024/03/02 12:02:51;;;;;;;22.07;20.63;;;;;;;;;;4954741;28;20466;-80
2024/03/02 12:05:19;;;;;;;21.23;19.73;;;;;;;;;;4956143;28;20498;-78
2024/03/02 12:10:40;;;;;;;23.03;21.43;;;;;;;;;;4969563;28;20525;-81
2024/03/02 12:13:12;;;;;;;22.67;21.17;;;;;;;;;;4976246;28;20442;-77
2024/03/02 12:15:42;;;;;;;22.17;20.67;;;;;;;;;;4976495;28;20430;-78
2024/03/02 12:18:12;;;;;;;20.40;19.00;;;;;;;;;;4978408;28;20438;-78
2024/03/02 12:23:36;;;;;;;22.20;20.60;;;;;;;;;;4969454;28;20473;-86
2024/03/02 12:29:17;;;;;;;20.43;19.17;;;;;;;;;;4956651;29;20402;-77
2024/03/02 12:31:47;;;;;;;21.47;19.70;;;;;;;;;;4955661;29;20446;-78
2024/03/02 12:34:25;;;;;;;20.50;19.13;;;;;;;;;;4940007;29;20467;-78
2024/03/02 12:37:05;;;;;;;20.87;19.30;;;;;;;;;;4954540;29;20962;-78
2024/03/02 12:39:37;;;;;;;20.80;19.50;;;;;;;;;;4957354;29;20425;-78
2024/03/02 12:42:06;;;;;;;20.97;19.67;;;;;;;;;;4956823;29;20440;-78
2024/03/02 12:44:55;;;;;;;21.73;20.40;;;;;;;;;;4956057;28;20605;-78
2024/03/02 12:47:30;;;;;;;21.50;19.90;;;;;;;;;;4957132;29;20494;-78
2024/03/02 12:49:58;;;;;;;21.53;20.27;;;;;;;;;;4956919;29;20419;-77
2024/03/02 12:52:42;;;;;;;21.23;19.93;;;;;;;;;;4955517;29;20521;-77
2024/03/02 12:55:18;;;;;;;21.43;19.30;;;;;;;;;;4957765;28;20466;-85
2024/03/02 13:00:47;;;;;;;21.93;20.53;;;;;;;;;;4964556;28;20514;-92
2024/03/02 13:03:18;;;;;;;21.07;19.87;;;;;;;;;;4962755;28;20550;-83
2024/03/02 13:06:00;;;;;;;20.57;19.27;;;;;;;;;;4962203;29;20490;-89
2024/03/02 13:08:53;;;;;;;21.13;19.93;;;;;;;;;;4961196;29;20940;-80
2024/03/02 13:11:21;;;;;;;21.20;20.00;;;;;;;;;;4966243;28;20545;-88
2024/03/02 13:16:34;;;;;;;20.20;19.00;;;;;;;;;;4981146;28;20493;-88
2024/03/02 13:19:11;;;;;;;20.50;19.30;;;;;;;;;;4981601;28;20443;-88
2024/03/02 13:21:50;;;;;;;21.20;20.00;;;;;;;;;;4981812;28;20446;-83
2024/03/02 13:24:19;;;;;;;20.23;19.03;;;;;;;;;;4982231;28;20493;-92
2024/03/02 13:26:46;;;;;;;20.63;19.43;;;;;;;;;;4980689;28;20461;-89
2024/03/02 13:32:26;;;;;;;19.47;18.37;;;;;;;;;;4970428;28;20449;-79
2024/03/02 13:37:58;;;;;;;20.03;18.83;;;;;;;;;;4967122;28;20414;-78
2024/03/02 13:40:26;;;;;;;20.87;19.50;;;;;;;;;;4952343;28;20470;-79
2024/03/02 13:42:54;;;;;;;20.20;19.10;;;;;;;;;;4973720;28;20843;-80
2024/03/02 13:45:21;;;;;;;19.63;18.53;;;;;;;;;;4973640;28;20497;-78
2024/03/02 13:47:50;;;;;;;19.90;18.70;;;;;;;;;;4974072;28;20458;-78
2024/03/02 13:50:32;;;;;;;19.03;18.00;;;;;;;;;;4974508;28;20966;-78
2024/03/02 13:53:09;;;;;;;19.90;18.60;;;;;;;;;;4973859;28;20532;-77
2024/03/02 13:55:36;;;;;;;18.93;17.90;;;;;;;;;;4964531;28;20450;-79
2024/03/02 13:58:04;;;;;;;19.33;17.90;;;;;;;;;;4973843;28;20974;-77
2024/03/02 14:00:32;;;;;;;19.60;18.50;;;;;;;;;;4972340;28;20454;-78
2024/03/02 14:02:59;;;;;;;19.80;18.70;;;;;;;;;;4944167;28;20497;-77
2024/03/02 14:05:29;;;;;;;20.47;19.27;;;;;;;;;;4967614;28;21137;-78
2024/03/02 14:07:57;;;;;;;19.70;18.60;;;;;;;;;;4956058;28;20466;-77
2024/03/02 14:10:25;;;;;;;19.43;18.20;;;;;;;;;;4953557;29;20566;-77
2024/03/02 14:12:55;;;;;;;19.33;18.17;;;;;;;;;;4952437;28;20471;-79
2024/03/02 14:15:30;;;;;;;19.33;18.23;;;;;;;;;;4962509;28;20517;-78
2024/03/02 14:18:00;;;;;;;18.57;17.57;;;;;;;;;;4953813;29;20920;-77
2024/03/02 14:20:29;;;;;;;18.90;17.90;;;;;;;;;;4951619;29;20467;-78
2024/03/02 14:22:59;;;;;;;17.67;16.67;;;;;;;;;;4953065;28;20451;-78
2024/03/02 14:25:31;;;;;;;18.50;17.50;;;;;;;;;;4953362;29;20887;-78
2024/03/02 14:27:58;;;;;;;18.40;17.43;;;;;;;;;;4954042;29;20432;-77
2024/03/02 14:30:27;;;;;;;19.00;18.00;;;;;;;;;;4953921;29;20462;-78
2024/03/02 14:32:54;;;;;;;18.00;17.00;;;;;;;;;;4952831;28;20847;-78
2024/03/02 14:35:22;;;;;;;19.10;18.00;;;;;;;;;;4954092;29;20445;-78
2024/03/02 14:37:51;;;;;;;18.37;17.37;;;;;;;;;;4953524;29;20902;-78
2024/03/02 14:40:21;;;;;;;18.60;17.60;;;;;;;;;;4953455;29;20554;-79
2024/03/02 14:42:50;;;;;;;19.07;18.07;;;;;;;;;;4952480;29;20501;-77
2024/03/02 14:45:18;;;;;;;18.37;17.37;;;;;;;;;;4953309;29;20494;-77
2024/03/02 14:47:45;;;;;;;18.50;17.50;;;;;;;;;;4953572;29;20498;-78
2024/03/02 14:50:13;;;;;;;19.53;18.40;;;;;;;;;;4953760;29;20463;-77
2024/03/02 14:52:40;;;;;;;18.90;17.90;;;;;;;;;;4952519;29;20556;-78
2024/03/02 14:55:12;;;;;;;18.63;17.63;;;;;;;;;;4952973;28;20478;-77